createdAt,value
2019-01-14T00:01:49.723Z,10.20
2019-01-14T00:04:20.002Z,18.00
2019-01-14T00:06:50.193Z,13.23
2019-01-14T00:09:23.040Z,10.87
2019-01-14T00:11:52.576Z,15.10
2019-01-14T00:14:23.754Z,16.33
2019-01-14T00:16:54.687Z,12.43
2019-01-14T00:19:26.658Z,17.17
2019-01-14T00:21:56.841Z,11.20
2019-01-14T00:24:27.036Z,11.40
2019-01-14T00:26:57.588Z,13.33
2019-01-14T00:29:27.792Z,18.57
2019-01-14T00:31:57.972Z,20.13
2019-01-14T00:34:28.354Z,14.80
2019-01-14T00:36:58.892Z,15.70
2019-01-14T00:39:29.213Z,14.20
2019-01-14T00:41:59.363Z,11.10
2019-01-14T00:44:29.965Z,12.70
2019-01-14T00:47:00.140Z,14.93
2019-01-14T00:49:30.751Z,11.13
2019-01-14T00:52:00.990Z,15.93
2019-01-14T00:54:32.272Z,17.87
2019-01-14T00:57:02.768Z,13.53
2019-01-14T00:59:32.937Z,15.50
2019-01-14T01:02:03.180Z,13.37
2019-01-14T01:04:33.501Z,9.70
2019-01-14T01:07:03.689Z,15.00
2019-01-14T01:09:33.933Z,11.30
2019-01-14T01:12:04.510Z,18.27
2019-01-14T01:14:34.697Z,17.00
2019-01-14T01:17:04.911Z,13.60
2019-01-14T01:19:35.420Z,20.77
2019-01-14T01:22:05.594Z,15.37
2019-01-14T01:24:35.867Z,18.70
2019-01-14T01:27:06.082Z,13.97
2019-01-14T01:29:36.296Z,13.20
2019-01-14T01:32:07.273Z,18.03
2019-01-14T01:34:37.799Z,24.07
2019-01-14T01:37:08.020Z,18.80
2019-01-14T01:39:38.346Z,18.60
2019-01-14T01:42:08.432Z,12.00
2019-01-14T01:44:38.993Z,14.70
2019-01-14T01:47:09.202Z,15.43
2019-01-14T01:49:39.780Z,17.30
2019-01-14T01:52:10.383Z,15.70
2019-01-14T01:54:40.618Z,13.63
2019-01-14T01:57:10.805Z,21.93
2019-01-14T01:59:41.087Z,15.60
2019-01-14T02:02:11.699Z,11.53
2019-01-14T02:04:41.881Z,11.37
2019-01-14T02:07:12.064Z,13.43
2019-01-14T02:09:42.391Z,16.17
2019-01-14T02:12:12.714Z,13.97
2019-01-14T02:14:42.870Z,16.00
2019-01-14T02:17:13.707Z,16.47
2019-01-14T02:19:44.342Z,16.93
2019-01-14T02:22:14.498Z,24.27
2019-01-14T02:24:44.784Z,17.07
2019-01-14T02:27:15.300Z,14.33
2019-01-14T02:29:46.148Z,16.00
2019-01-14T02:32:16.362Z,17.33
2019-01-14T02:34:46.889Z,18.53
2019-01-14T02:37:17.045Z,14.10
2019-01-14T02:39:47.245Z,21.00
2019-01-14T02:42:17.401Z,15.17
2019-01-14T02:44:47.913Z,14.03
2019-01-14T02:47:18.049Z,18.77
2019-01-14T02:49:48.306Z,16.27
2019-01-14T02:52:18.599Z,16.23
2019-01-14T02:54:48.801Z,19.93
2019-01-14T02:57:18.977Z,11.03
2019-01-14T02:59:49.200Z,14.17
2019-01-14T03:02:19.986Z,13.73
2019-01-14T03:04:50.668Z,14.83
2019-01-14T03:07:21.135Z,14.30
2019-01-14T03:09:51.349Z,13.90
2019-01-14T03:12:21.888Z,16.50
2019-01-14T03:14:52.077Z,13.97
2019-01-14T03:17:22.638Z,16.03
2019-01-14T03:19:52.848Z,13.70
2019-01-14T03:22:23.087Z,14.17
2019-01-14T03:24:53.241Z,14.77
2019-01-14T03:27:23.357Z,12.73
2019-01-14T03:29:53.576Z,12.90
2019-01-14T03:32:24.120Z,14.77
2019-01-14T03:34:54.269Z,14.20
2019-01-14T03:37:24.450Z,11.57
2019-01-14T03:39:54.673Z,13.77
2019-01-14T03:42:25.272Z,16.40
2019-01-14T03:44:55.607Z,15.80
2019-01-14T03:47:25.784Z,12.40
2019-01-14T03:49:56.758Z,16.43
2019-01-14T03:52:27.605Z,13.80
2019-01-14T03:54:57.777Z,17.90
2019-01-14T03:57:27.941Z,16.13
2019-01-14T03:59:58.137Z,12.37
2019-01-14T04:02:28.381Z,11.77
2019-01-14T04:04:58.970Z,13.63
2019-01-14T04:10:37.977Z,12.23
2019-01-14T04:13:08.493Z,18.50
2019-01-14T04:15:38.842Z,12.70
2019-01-14T04:18:10.763Z,12.57
2019-01-14T04:20:40.970Z,13.00
2019-01-14T04:23:11.243Z,14.57
2019-01-14T04:25:41.480Z,12.13
2019-01-14T04:28:11.751Z,13.17
2019-01-14T04:30:41.996Z,10.30
2019-01-14T04:33:12.239Z,16.03
2019-01-14T04:35:42.511Z,18.97
2019-01-14T04:38:12.752Z,11.47
2019-01-14T04:40:43.386Z,17.73
2019-01-14T04:43:13.612Z,12.63
2019-01-14T04:45:44.284Z,12.03
2019-01-14T04:48:14.882Z,11.23
2019-01-14T04:50:45.110Z,12.90
2019-01-14T04:53:15.256Z,7.93
2019-01-14T04:55:45.582Z,19.60
2019-01-14T04:58:15.804Z,16.07
2019-01-14T05:00:46.735Z,19.50
2019-01-14T05:03:17.027Z,12.37
2019-01-14T05:05:47.288Z,15.23
2019-01-14T05:08:17.854Z,12.77
2019-01-14T05:10:48.056Z,11.40
2019-01-14T05:13:18.329Z,16.40
2019-01-14T05:15:48.936Z,14.90
2019-01-14T05:18:19.276Z,13.37
2019-01-14T05:20:50.036Z,9.80
2019-01-14T05:23:20.619Z,11.50
2019-01-14T05:25:51.161Z,14.30
2019-01-14T05:28:21.378Z,12.27
2019-01-14T05:30:51.566Z,16.03
2019-01-14T05:33:22.138Z,17.70
2019-01-14T05:35:52.328Z,13.73
2019-01-14T05:38:22.544Z,16.67
2019-01-14T05:40:53.086Z,8.47
2019-01-14T05:43:23.271Z,14.03
2019-01-14T05:45:53.464Z,10.53
2019-01-14T05:48:23.655Z,16.70
2019-01-14T05:50:53.902Z,16.03
2019-01-14T05:53:24.122Z,10.17
2019-01-14T05:55:54.314Z,12.53
2019-01-14T05:58:24.546Z,17.13
2019-01-14T06:00:54.836Z,16.60
2019-01-14T06:03:25.011Z,16.07
2019-01-14T06:05:55.630Z,11.00
2019-01-14T06:08:25.848Z,12.90
2019-01-14T06:10:56.385Z,8.00
2019-01-14T06:13:26.686Z,11.57
2019-01-14T06:15:56.964Z,10.07
2019-01-14T06:18:27.177Z,10.87
2019-01-14T06:20:57.441Z,14.47
2019-01-14T06:23:27.670Z,12.83
2019-01-14T06:25:57.961Z,10.77
2019-01-14T06:28:28.190Z,9.63
2019-01-14T06:30:58.465Z,12.37
2019-01-14T06:33:28.622Z,11.67
2019-01-14T06:35:59.257Z,11.03
2019-01-14T06:38:30.820Z,11.60
2019-01-14T06:41:01.049Z,10.80
2019-01-14T06:43:31.709Z,14.73
2019-01-14T06:46:01.950Z,14.23
2019-01-14T06:48:32.171Z,13.47
2019-01-14T06:51:02.385Z,11.70
2019-01-14T06:53:32.602Z,11.50
2019-01-14T06:56:02.884Z,14.47
2019-01-14T06:58:33.446Z,10.70
2019-01-14T07:01:03.652Z,10.80
2019-01-14T07:03:33.844Z,18.30
2019-01-14T07:06:04.060Z,16.90
2019-01-14T07:08:34.710Z,18.37
2019-01-14T07:11:05.604Z,13.67
2019-01-14T07:13:35.905Z,16.03
2019-01-14T07:16:06.280Z,13.83
2019-01-14T07:18:36.528Z,15.53
2019-01-14T07:21:06.767Z,16.10
2019-01-14T07:23:37.039Z,12.23
2019-01-14T07:26:07.209Z,17.27
2019-01-14T07:28:37.439Z,11.23
2019-01-14T07:31:07.677Z,10.47
2019-01-14T07:33:37.882Z,14.83
2019-01-14T07:36:08.113Z,10.57
2019-01-14T07:38:38.336Z,16.50
2019-01-14T07:41:08.626Z,16.03
2019-01-14T07:43:39.148Z,11.27
2019-01-14T07:46:09.376Z,10.83
2019-01-14T07:48:39.888Z,13.60
2019-01-14T07:51:10.518Z,14.10
2019-01-14T07:53:40.692Z,13.87
2019-01-14T07:56:11.414Z,13.00
2019-01-14T07:58:42.522Z,12.43
2019-01-14T08:01:12.649Z,8.37
2019-01-14T08:03:42.881Z,4.43
2019-01-14T08:06:13.106Z,4.17
2019-01-14T08:08:43.289Z,1.83
2019-01-14T08:11:13.523Z,4.50
2019-01-14T08:13:43.739Z,5.07
2019-01-14T08:16:13.915Z,4.97
2019-01-14T08:18:44.227Z,3.57
2019-01-14T08:21:14.464Z,6.47
2019-01-14T08:23:44.733Z,8.97
2019-01-14T08:26:14.959Z,7.77
2019-01-14T08:28:46.283Z,3.90
2019-01-14T08:31:16.993Z,3.27
2019-01-14T08:33:47.893Z,2.93
2019-01-14T08:36:18.205Z,3.97
2019-01-14T08:38:48.374Z,2.23
2019-01-14T08:41:19.724Z,2.23
2019-01-14T08:43:53.853Z,2.83
2019-01-14T08:46:24.627Z,3.27
2019-01-14T08:48:54.851Z,3.90
2019-01-14T08:51:25.499Z,4.53
2019-01-14T08:53:56.027Z,2.83
2019-01-14T08:56:26.276Z,3.37
2019-01-14T08:58:57.935Z,4.03
2019-01-14T09:01:29.355Z,4.70
2019-01-14T09:03:59.601Z,3.67
2019-01-14T09:06:29.920Z,6.50
2019-01-14T09:09:00.147Z,3.00
2019-01-14T09:11:30.714Z,5.03
2019-01-14T09:14:00.950Z,4.70
2019-01-14T09:16:31.382Z,2.30
2019-01-14T09:19:02.295Z,2.50
2019-01-14T09:21:32.549Z,2.03
2019-01-14T09:24:03.142Z,2.60
2019-01-14T09:26:33.434Z,1.93
2019-01-14T09:29:05.126Z,1.00
2019-01-14T09:31:35.510Z,4.40
2019-01-14T09:34:06.301Z,3.40
2019-01-14T09:36:36.468Z,1.63
2019-01-14T09:39:10.044Z,3.73
2019-01-14T09:41:40.296Z,3.07
2019-01-14T09:44:10.740Z,2.40
2019-01-14T09:46:41.125Z,2.00
2019-01-14T09:49:11.698Z,3.60
2019-01-14T09:51:42.318Z,5.23
2019-01-14T09:54:12.575Z,2.27
2019-01-14T09:56:43.552Z,2.67
2019-01-14T09:59:13.931Z,3.03
2019-01-14T10:01:44.076Z,2.63
2019-01-14T10:04:14.349Z,2.83
2019-01-14T10:06:44.574Z,1.60
2019-01-14T10:09:15.189Z,2.93
2019-01-14T10:11:45.504Z,3.33
2019-01-14T10:14:15.730Z,2.97
2019-01-14T10:16:46.336Z,2.77
2019-01-14T10:19:16.846Z,4.27
2019-01-14T10:21:47.504Z,3.23
2019-01-14T10:24:17.659Z,3.80
2019-01-14T10:26:47.931Z,5.70
2019-01-14T10:29:18.512Z,3.73
2019-01-14T10:31:48.811Z,3.57
2019-01-14T10:34:19.429Z,12.67
2019-01-14T10:36:49.655Z,3.83
2019-01-14T10:39:19.830Z,5.10
2019-01-14T10:41:50.136Z,3.77
2019-01-14T10:44:20.326Z,5.47
2019-01-14T10:46:50.563Z,6.43
2019-01-14T10:49:21.494Z,9.13
2019-01-14T10:51:51.787Z,6.60
2019-01-14T10:54:21.946Z,8.13
2019-01-14T10:56:52.289Z,6.00
2019-01-14T10:59:22.611Z,8.10
2019-01-14T11:01:52.927Z,7.37
2019-01-14T11:04:23.052Z,3.43
2019-01-14T11:06:55.245Z,2.40
2019-01-14T11:09:25.557Z,2.07
2019-01-14T11:11:55.880Z,4.37
2019-01-14T11:14:26.110Z,5.13
2019-01-14T11:16:56.314Z,3.63
2019-01-14T11:19:26.975Z,3.83
2019-01-14T11:21:57.454Z,1.77
2019-01-14T11:24:49.115Z,3.37
2019-01-14T11:27:20.685Z,4.90
2019-01-14T11:29:54.592Z,4.07
2019-01-14T11:32:25.120Z,3.93
2019-01-14T11:34:55.387Z,4.63
2019-01-14T11:37:25.632Z,7.30
2019-01-14T11:39:55.874Z,4.30
2019-01-14T11:42:26.574Z,7.30
2019-01-14T11:44:56.872Z,6.17
2019-01-14T11:47:27.452Z,7.43
2019-01-14T11:49:57.934Z,6.07
2019-01-14T11:52:28.200Z,4.50
2019-01-14T11:54:58.405Z,5.40
2019-01-14T11:57:28.929Z,3.37
2019-01-14T11:59:59.580Z,5.53
2019-01-14T12:02:29.807Z,11.10
2019-01-14T12:05:00.376Z,6.13
2019-01-14T12:07:30.609Z,3.77
2019-01-14T12:10:00.913Z,7.17
2019-01-14T12:12:31.418Z,6.97
2019-01-14T12:15:01.947Z,3.50
2019-01-14T12:17:33.195Z,6.07
2019-01-14T12:20:03.580Z,2.63
2019-01-14T12:22:33.871Z,3.37
2019-01-14T12:25:05.291Z,4.27
2019-01-14T12:27:35.613Z,3.67
2019-01-14T12:30:10.756Z,4.23
2019-01-14T12:32:41.021Z,6.57
2019-01-14T12:35:11.531Z,6.20
2019-01-14T12:37:42.109Z,5.47
2019-01-14T12:40:12.882Z,5.90
2019-01-14T12:42:43.145Z,5.23
2019-01-14T12:45:14.343Z,7.17
2019-01-14T12:47:44.550Z,4.33
2019-01-14T12:50:15.359Z,6.03
2019-01-14T12:52:45.900Z,4.63
2019-01-14T12:55:16.667Z,7.70
2019-01-14T12:57:47.203Z,3.90
2019-01-14T13:00:22.681Z,5.53
2019-01-14T13:02:52.908Z,6.40
2019-01-14T13:05:23.485Z,6.13
2019-01-14T13:07:53.729Z,10.87
2019-01-14T13:10:23.940Z,6.40
2019-01-14T13:12:54.078Z,7.53
2019-01-14T13:15:25.949Z,4.70
2019-01-14T13:17:56.202Z,7.57
2019-01-14T13:20:26.410Z,5.70
2019-01-14T13:22:56.972Z,5.87
2019-01-14T13:25:27.168Z,10.77
2019-01-14T13:27:57.740Z,6.13
2019-01-14T13:30:29.795Z,4.00
2019-01-14T13:33:01.088Z,4.93
2019-01-14T13:35:31.292Z,5.47
2019-01-14T13:38:01.486Z,6.57
2019-01-14T13:40:31.699Z,6.83
2019-01-14T13:43:01.980Z,9.13
2019-01-14T13:45:32.135Z,8.50
2019-01-14T13:48:02.888Z,7.07
2019-01-14T13:50:33.449Z,5.37
2019-01-14T13:53:03.746Z,6.93
2019-01-14T13:55:34.244Z,6.20
2019-01-14T13:58:04.464Z,7.23
2019-01-14T14:00:34.648Z,8.13
2019-01-14T14:03:05.279Z,7.27
2019-01-14T14:05:35.801Z,4.83
2019-01-14T14:08:05.996Z,4.93
2019-01-14T14:10:47.460Z,4.27
2019-01-14T14:13:17.753Z,7.67
2019-01-14T14:15:48.268Z,10.13
2019-01-14T14:18:18.850Z,5.60
2019-01-14T14:20:49.044Z,5.90
2019-01-14T14:23:19.217Z,7.67
2019-01-14T14:25:49.816Z,9.57
2019-01-14T14:28:20.460Z,6.33
2019-01-14T14:30:50.664Z,6.53
2019-01-14T14:33:20.918Z,3.87
2019-01-14T14:35:51.113Z,5.30
2019-01-14T14:38:21.323Z,6.63
2019-01-14T14:40:51.871Z,5.23
2019-01-14T14:43:22.055Z,6.23
2019-01-14T14:45:53.014Z,7.80
2019-01-14T14:48:23.557Z,4.80
2019-01-14T14:50:53.783Z,8.17
2019-01-14T14:53:23.967Z,12.23
2019-01-14T14:55:54.162Z,5.03
2019-01-14T14:58:24.344Z,5.20
2019-01-14T15:00:54.561Z,4.67
2019-01-14T15:03:25.140Z,7.23
2019-01-14T15:05:55.383Z,4.37
2019-01-14T15:08:25.544Z,4.00
2019-01-14T15:10:55.752Z,6.73
2019-01-14T15:13:25.958Z,4.37
2019-01-14T15:15:56.161Z,5.10
2019-01-14T15:18:26.347Z,6.07
2019-01-14T15:20:56.654Z,7.77
2019-01-14T15:23:26.844Z,8.57
2019-01-14T15:25:57.416Z,8.83
2019-01-14T15:28:27.603Z,4.97
2019-01-14T15:30:57.784Z,6.27
2019-01-14T15:33:28.008Z,9.33
2019-01-14T15:35:58.204Z,9.23
2019-01-14T15:38:28.695Z,6.83
2019-01-14T15:40:58.915Z,7.30
2019-01-14T15:43:29.130Z,8.57
2019-01-14T15:46:00.371Z,8.67
2019-01-14T15:48:30.596Z,3.87
2019-01-14T15:51:02.198Z,6.77
2019-01-14T15:53:32.761Z,5.80
2019-01-14T15:56:02.932Z,9.63
2019-01-14T15:58:33.569Z,5.37
2019-01-14T16:01:03.743Z,8.70
2019-01-14T16:03:34.079Z,5.57
2019-01-14T16:06:04.451Z,6.73
2019-01-14T16:08:34.643Z,7.50
2019-01-14T16:11:04.840Z,12.57
2019-01-14T16:13:35.520Z,9.07
2019-01-14T16:16:05.822Z,9.03
2019-01-14T16:18:36.038Z,8.87
2019-01-14T16:21:06.210Z,5.37
2019-01-14T16:23:36.458Z,12.93
2019-01-14T16:26:06.707Z,9.17
2019-01-14T16:28:36.906Z,3.70
2019-01-14T16:31:07.122Z,5.47
2019-01-14T16:33:37.330Z,6.20
2019-01-14T16:36:08.258Z,7.33
2019-01-14T16:38:38.511Z,7.57
2019-01-14T16:41:08.787Z,8.47
2019-01-14T16:43:38.996Z,5.67
2019-01-14T16:46:09.184Z,7.30
2019-01-14T16:48:39.413Z,6.40
2019-01-14T16:51:09.628Z,6.33
2019-01-14T16:53:39.925Z,5.00
2019-01-14T16:56:10.198Z,5.80
2019-01-14T16:58:40.533Z,7.80
2019-01-14T17:01:10.806Z,6.50
2019-01-14T17:03:41.089Z,7.93
2019-01-14T17:06:11.333Z,9.73
2019-01-14T17:08:42.584Z,6.07
2019-01-14T17:11:13.224Z,9.03
2019-01-14T17:13:43.450Z,5.57
2019-01-14T17:16:14.282Z,6.47
2019-01-14T17:18:44.499Z,6.57
2019-01-14T17:21:14.871Z,6.77
2019-01-14T17:23:45.358Z,5.90
2019-01-14T17:26:15.539Z,5.97
2019-01-14T17:28:45.921Z,8.87
2019-01-14T17:31:16.151Z,8.00
2019-01-14T17:33:46.929Z,6.60
2019-01-14T17:36:17.384Z,5.97
2019-01-14T17:38:51.076Z,6.73
2019-01-14T17:41:21.765Z,5.33
2019-01-14T17:43:52.511Z,5.73
2019-01-14T17:46:24.108Z,7.47
2019-01-14T17:48:54.355Z,5.97
2019-01-14T17:51:24.569Z,4.90
2019-01-14T17:53:54.896Z,6.37
2019-01-14T17:56:25.112Z,5.20
2019-01-14T17:58:55.377Z,6.43
2019-01-14T18:01:25.639Z,6.10
2019-01-14T18:03:55.937Z,9.47
2019-01-14T18:06:26.254Z,9.27
2019-01-14T18:08:56.549Z,10.40
2019-01-14T18:11:26.769Z,6.77
2019-01-14T18:13:56.960Z,7.53
2019-01-14T18:16:27.241Z,6.43
2019-01-14T18:18:58.450Z,4.77
2019-01-14T18:21:29.047Z,7.13
2019-01-14T18:23:59.998Z,9.20
2019-01-14T18:26:30.152Z,6.60
2019-01-14T18:29:00.387Z,5.87
2019-01-14T18:31:30.927Z,6.13
2019-01-14T18:34:01.227Z,6.23
2019-01-14T18:36:31.890Z,10.33
2019-01-14T18:39:02.169Z,7.10
2019-01-14T18:41:34.123Z,5.90
2019-01-14T18:44:04.666Z,5.60
2019-01-14T18:46:36.094Z,9.93
2019-01-14T18:49:06.856Z,6.80
2019-01-14T18:51:37.425Z,6.07
2019-01-14T18:54:07.706Z,5.73
2019-01-14T18:56:37.855Z,7.13
2019-01-14T18:59:08.127Z,5.17
2019-01-14T19:01:38.318Z,4.37
2019-01-14T19:04:08.870Z,7.37
2019-01-14T19:06:40.088Z,5.97
2019-01-14T19:09:10.629Z,6.60
2019-01-14T19:11:40.932Z,8.00
2019-01-14T19:14:11.504Z,6.77
2019-01-14T19:16:41.727Z,3.87
2019-01-14T19:19:12.251Z,5.87
2019-01-14T19:21:42.474Z,6.03
2019-01-14T19:24:13.091Z,7.37
2019-01-14T19:26:44.476Z,5.57
2019-01-14T19:29:14.714Z,8.67
2019-01-14T19:31:44.911Z,6.63
2019-01-14T19:34:15.500Z,7.00
2019-01-14T19:36:46.198Z,12.00
2019-01-14T19:39:16.852Z,4.40
2019-01-14T19:41:47.412Z,7.13
2019-01-14T19:44:17.798Z,6.73
2019-01-14T19:46:48.083Z,7.00
2019-01-14T19:49:18.335Z,5.57
2019-01-14T19:51:49.598Z,6.33
2019-01-14T19:54:19.905Z,7.93
2019-01-14T19:56:50.189Z,5.57
2019-01-14T19:59:20.427Z,7.23
2019-01-14T20:01:50.956Z,7.73
2019-01-14T20:04:21.284Z,5.97
2019-01-14T20:06:51.596Z,5.27
2019-01-14T20:09:21.789Z,7.23
2019-01-14T20:11:52.329Z,5.00
2019-01-14T20:14:22.539Z,7.70
2019-01-14T20:16:52.742Z,5.87
2019-01-14T20:19:23.026Z,5.70
2019-01-14T20:21:53.303Z,8.10
2019-01-14T20:24:23.630Z,5.83
2019-01-14T20:26:53.814Z,8.27
2019-01-14T20:29:24.133Z,5.80
2019-01-14T20:31:54.667Z,6.40
2019-01-14T20:34:24.878Z,7.03
2019-01-14T20:36:55.069Z,5.37
2019-01-14T20:39:25.359Z,7.20
2019-01-14T20:41:55.576Z,12.57
2019-01-14T20:44:25.862Z,6.60
2019-01-14T20:46:56.415Z,5.83
2019-01-14T20:49:26.624Z,6.00
2019-01-14T20:51:56.816Z,5.37
2019-01-14T20:54:27.098Z,6.03
2019-01-14T20:56:57.729Z,6.33
2019-01-14T20:59:33.473Z,6.73
2019-01-14T21:02:00.633Z,5.37
2019-01-14T21:04:31.196Z,6.33
2019-01-14T21:07:01.495Z,7.87
2019-01-14T21:09:31.904Z,7.57
2019-01-14T21:12:02.164Z,8.33
2019-01-14T21:14:32.757Z,6.97
2019-01-14T21:17:03.358Z,9.50
2019-01-14T21:19:33.610Z,8.47
2019-01-14T21:22:03.817Z,8.97
2019-01-14T21:24:34.210Z,10.20
2019-01-14T21:27:04.419Z,9.03
2019-01-14T21:29:34.663Z,9.53
2019-01-14T21:32:04.855Z,10.90
2019-01-14T21:34:35.091Z,9.93
2019-01-14T21:37:05.631Z,7.27
2019-01-14T21:39:35.923Z,9.90
2019-01-14T21:42:06.085Z,8.90
2019-01-14T21:44:37.374Z,7.73
2019-01-14T21:47:07.599Z,7.53
2019-01-14T21:49:37.854Z,9.60
2019-01-14T21:52:08.329Z,6.80
2019-01-14T21:54:38.643Z,7.97
2019-01-14T21:57:08.831Z,8.40
2019-01-14T21:59:39.038Z,10.03
2019-01-14T22:02:09.264Z,8.77
2019-01-14T22:04:39.556Z,10.30
2019-01-14T22:07:09.748Z,8.67
2019-01-14T22:09:40.105Z,13.23
2019-01-14T22:12:10.341Z,10.60
2019-01-14T22:14:40.598Z,14.37
2019-01-14T22:17:10.796Z,11.50
2019-01-14T22:19:41.101Z,14.37
2019-01-14T22:22:12.047Z,9.27
2019-01-14T22:24:42.979Z,12.03
2019-01-14T22:27:13.668Z,10.33
2019-01-14T22:29:44.169Z,11.10
2019-01-14T22:32:14.659Z,12.17
2019-01-14T22:34:44.923Z,12.03
2019-01-14T22:37:15.099Z,11.43
2019-01-14T22:39:45.522Z,11.00
2019-01-14T22:42:15.856Z,12.53
2019-01-14T22:44:46.073Z,11.27
2019-01-14T22:47:16.317Z,13.90
2019-01-14T22:49:46.585Z,16.93
2019-01-14T22:52:16.819Z,14.37
2019-01-14T22:54:47.050Z,17.33
2019-01-14T22:57:17.244Z,13.67
2019-01-14T22:59:47.996Z,13.57
2019-01-14T23:02:18.200Z,13.83
2019-01-14T23:04:48.498Z,15.00
2019-01-14T23:07:18.711Z,15.77
2019-01-14T23:09:50.028Z,13.73
2019-01-14T23:12:20.330Z,12.17
2019-01-14T23:14:50.709Z,12.30
2019-01-14T23:17:21.276Z,13.47
2019-01-14T23:19:51.530Z,14.10
2019-01-14T23:22:21.858Z,13.03
2019-01-14T23:24:52.262Z,13.20
2019-01-14T23:27:22.584Z,15.20
2019-01-14T23:29:53.143Z,12.20
2019-01-14T23:32:23.417Z,13.80
2019-01-14T23:34:54.008Z,11.50
2019-01-14T23:37:24.458Z,11.80
2019-01-14T23:39:54.755Z,12.90
2019-01-14T23:42:25.282Z,13.37
2019-01-14T23:44:55.514Z,9.90
2019-01-14T23:47:25.688Z,12.10
2019-01-14T23:49:56.018Z,12.37
2019-01-14T23:52:26.595Z,12.50
2019-01-14T23:54:56.904Z,12.50
2019-01-14T23:57:27.166Z,10.57
2019-01-14T23:59:57.430Z,11.30
